Terminal Aerodrome Forecast
Issued by NWS

Home | Current Version | Previous Version | Text Only | Print | Product List | Glossary On
Versions: 1 2 3 4 5 6 7 8 9 10 11 12 13 14
000
FTUS46 KLOX 281700
TAFLGB
TAF
KLGB 281722Z 2818/2918 VRB03KT P6SM SKC
     FM282000 19007KT P6SM SKC
     FM290000 28007KT P6SM SKC
     FM290400 VRB03KT P6SM SCT250
     FM291100 VRB03KT 4SM BR OVC007=

USA.gov is the U.S. government's official web portal to all federal, state and local government web resources and services.